createdAt,value
2022-09-07T00:02:23.893Z,101150.56
2022-09-07T00:04:51.964Z,101153.34
2022-09-07T00:07:20.259Z,101155.03
2022-09-07T00:09:48.482Z,101163.34
2022-09-07T00:12:16.557Z,101162.50
2022-09-07T00:14:44.647Z,101160.81
2022-09-07T00:17:12.728Z,101167.31
2022-09-07T00:19:42.363Z,101171.94
2022-09-07T00:22:10.478Z,101155.75
2022-09-07T00:24:38.757Z,101152.41
2022-09-07T00:27:06.940Z,101143.59
2022-09-07T00:29:35.005Z,101142.84
2022-09-07T00:32:03.455Z,101139.25
2022-09-07T00:34:31.517Z,101140.22
2022-09-07T00:37:01.046Z,101138.53
2022-09-07T00:39:29.243Z,101129.69
2022-09-07T00:41:57.333Z,101119.88
2022-09-07T00:45:04.074Z,101121.69
2022-09-07T00:47:37.947Z,101119.19
2022-09-07T00:50:11.145Z,101120.00
2022-09-07T00:52:43.308Z,101116.56
2022-09-07T00:55:15.268Z,101116.25
2022-09-07T00:57:47.951Z,101115.16
2022-09-07T01:00:16.612Z,101109.84
2022-09-07T01:02:45.107Z,101107.09
2022-09-07T01:05:20.694Z,101108.94
2022-09-07T01:07:50.349Z,101104.56
2022-09-07T01:10:18.800Z,101103.50
2022-09-07T01:12:46.880Z,101109.94
2022-09-07T01:15:14.992Z,101112.53
2022-09-07T01:17:56.866Z,101104.41
2022-09-07T01:20:50.592Z,101104.34
2022-09-07T01:23:59.972Z,101101.66
2022-09-07T01:27:05.110Z,101100.75
2022-09-07T01:29:39.491Z,101106.09
2022-09-07T01:32:15.621Z,101099.94
2022-09-07T01:34:47.478Z,101095.50
2022-09-07T01:37:24.577Z,101098.97
2022-09-07T01:39:57.087Z,101090.47
2022-09-07T01:42:31.832Z,101094.72
2022-09-07T01:45:03.278Z,101097.63
2022-09-07T01:47:35.536Z,101093.16
2022-09-07T01:50:09.578Z,101096.63
2022-09-07T01:52:43.038Z,101097.56
2022-09-07T01:55:16.680Z,101088.00
2022-09-07T01:57:51.159Z,101080.03
2022-09-07T02:00:21.088Z,101084.41
2022-09-07T02:02:56.501Z,101062.34
2022-09-07T02:05:29.142Z,101073.66
2022-09-07T02:08:00.184Z,101072.59
2022-09-07T02:10:35.184Z,101068.38
2022-09-07T02:13:09.368Z,101069.28
2022-09-07T02:15:46.099Z,101069.28
2022-09-07T02:18:15.427Z,101070.44
2022-09-07T02:20:48.157Z,101070.38
2022-09-07T02:23:21.180Z,101074.00
2022-09-07T02:25:55.151Z,101067.63
2022-09-07T02:28:28.056Z,101069.63
2022-09-07T02:30:57.697Z,101067.81
2022-09-07T02:33:25.900Z,101064.81
2022-09-07T02:35:54.278Z,101067.72
2022-09-07T02:38:22.832Z,101071.38
2022-09-07T02:40:53.156Z,101066.88
2022-09-07T02:43:23.053Z,101076.56
2022-09-07T02:46:19.653Z,101070.25
2022-09-07T02:48:55.740Z,101069.00
2022-09-07T02:51:32.751Z,101065.41
2022-09-07T02:54:16.704Z,101057.28
2022-09-07T02:56:59.129Z,101054.94
2022-09-07T02:59:40.982Z,101051.78
2022-09-07T03:02:18.397Z,101043.72
2022-09-07T03:04:52.304Z,101048.31
2022-09-07T03:07:24.015Z,101043.31
2022-09-07T03:09:55.293Z,101045.66
2022-09-07T03:12:23.695Z,101046.53
2022-09-07T03:14:51.741Z,101046.53
2022-09-07T03:17:21.197Z,101052.84
2022-09-07T03:19:49.265Z,101042.44
2022-09-07T03:22:17.358Z,101039.69
2022-09-07T03:24:45.999Z,101045.91
2022-09-07T03:27:14.081Z,101042.31
2022-09-07T03:29:42.281Z,101042.25
2022-09-07T03:32:10.365Z,101029.69
2022-09-07T03:34:39.910Z,101027.88
2022-09-07T03:37:07.993Z,101021.56
2022-09-07T03:39:36.684Z,101014.41
2022-09-07T03:42:05.113Z,101015.00
2022-09-07T03:44:33.628Z,101013.34
2022-09-07T03:47:01.712Z,101008.03
2022-09-07T03:49:29.800Z,101003.34
2022-09-07T03:51:59.196Z,100999.78
2022-09-07T03:54:27.364Z,100997.09
2022-09-07T03:56:55.461Z,100999.84
2022-09-07T03:59:23.681Z,100990.25
2022-09-07T04:01:51.839Z,100998.16
2022-09-07T04:04:20.012Z,100993.78
2022-09-07T04:06:48.161Z,100994.88
2022-09-07T04:09:17.731Z,100995.81
2022-09-07T04:11:45.826Z,100986.59
2022-09-07T04:14:13.987Z,100977.75
2022-09-07T04:16:42.178Z,100978.63
2022-09-07T04:19:10.282Z,100983.13
2022-09-07T04:21:38.376Z,100983.06
2022-09-07T04:24:06.807Z,100981.31
2022-09-07T04:26:37.068Z,100970.47
2022-09-07T04:29:06.921Z,100972.25
2022-09-07T04:31:35.728Z,100967.25
2022-09-07T04:34:05.084Z,100944.72
2022-09-07T04:36:33.340Z,100954.38
2022-09-07T04:39:04.067Z,100952.63
2022-09-07T04:41:34.221Z,100959.91
2022-09-07T04:44:05.329Z,100953.78
2022-09-07T04:46:35.152Z,100948.72
2022-09-07T04:49:06.072Z,100947.47
2022-09-07T04:51:35.089Z,100951.78
2022-09-07T04:54:04.204Z,100956.16
2022-09-07T04:56:32.701Z,100963.22
2022-09-07T04:59:03.275Z,100975.66
2022-09-07T05:01:31.463Z,100973.91
2022-09-07T05:04:00.581Z,100974.94
2022-09-07T05:06:28.803Z,100981.22
2022-09-07T05:08:57.298Z,101003.38
2022-09-07T05:11:29.539Z,101027.44
2022-09-07T05:13:58.201Z,101056.00
2022-09-07T05:16:28.827Z,101080.72
2022-09-07T05:18:59.478Z,101085.97
2022-09-07T05:21:29.812Z,101092.03
2022-09-07T05:23:59.478Z,101079.38
2022-09-07T05:26:30.236Z,101059.03
2022-09-07T05:31:51.878Z,101077.25
2022-09-07T05:34:35.499Z,101085.16
2022-09-07T05:37:03.926Z,101090.25
2022-09-07T05:39:32.361Z,101082.06
2022-09-07T05:42:00.489Z,101052.44
2022-09-07T05:44:44.985Z,101047.94
2022-09-07T05:47:15.149Z,101072.94
2022-09-07T05:49:43.230Z,101059.03
2022-09-07T05:52:12.248Z,101055.25
2022-09-07T05:54:40.399Z,101047.13
2022-09-07T05:57:09.045Z,101055.84
2022-09-07T05:59:37.127Z,101026.34
2022-09-07T06:02:06.146Z,101011.06
2022-09-07T06:04:35.733Z,101019.13
2022-09-07T06:07:21.732Z,101033.09
2022-09-07T06:12:39.197Z,101023.81
2022-09-07T06:15:08.529Z,101025.63
2022-09-07T06:17:36.633Z,101033.63
2022-09-07T06:20:07.649Z,101026.28
2022-09-07T06:22:36.508Z,101025.78
2022-09-07T06:25:04.943Z,101007.03
2022-09-07T06:27:33.076Z,101006.59
2022-09-07T06:30:01.293Z,101026.41
2022-09-07T06:32:45.758Z,101031.47
2022-09-07T06:35:16.150Z,101018.34
2022-09-07T06:37:44.296Z,101031.31
2022-09-07T06:40:13.708Z,101028.63
2022-09-07T06:42:41.849Z,101026.72
2022-09-07T06:45:11.316Z,101030.22
2022-09-07T06:47:40.129Z,101032.47
2022-09-07T06:50:09.450Z,101033.94
2022-09-07T06:55:28.637Z,101035.25
2022-09-07T06:57:57.019Z,101036.41
2022-09-07T07:00:25.302Z,101030.00
2022-09-07T07:02:53.516Z,101040.13
2022-09-07T07:05:21.822Z,101030.78
2022-09-07T07:07:51.252Z,101036.25
2022-09-07T07:10:24.284Z,101017.41
2022-09-07T07:12:57.101Z,101029.84
2022-09-07T07:15:27.403Z,101024.63
2022-09-07T07:17:59.058Z,101022.78
2022-09-07T07:20:33.741Z,101025.72
2022-09-07T07:23:03.177Z,101026.31
2022-09-07T07:25:31.616Z,101032.75
2022-09-07T07:30:47.736Z,101035.94
2022-09-07T07:33:15.837Z,101029.25
2022-09-07T07:35:43.898Z,101036.75
2022-09-07T07:43:49.612Z,101027.34
2022-09-07T07:46:18.269Z,101018.78
2022-09-07T07:48:49.097Z,101024.41
2022-09-07T07:51:17.319Z,101030.75
2022-09-07T07:53:46.916Z,101020.78
2022-09-07T07:56:15.326Z,101016.50
2022-09-07T07:58:46.635Z,101007.66
2022-09-07T08:01:16.616Z,101000.47
2022-09-07T08:03:46.843Z,100998.25
2022-09-07T08:06:16.721Z,100983.50
2022-09-07T08:08:46.518Z,100982.53
2022-09-07T08:11:16.989Z,100969.38
2022-09-07T08:13:46.518Z,100951.72
2022-09-07T08:16:15.235Z,100950.31
2022-09-07T08:18:46.957Z,100968.44
2022-09-07T08:21:16.810Z,100973.72
2022-09-07T08:23:46.165Z,100986.69
2022-09-07T08:26:14.117Z,100987.38
2022-09-07T08:28:43.893Z,100976.91
2022-09-07T08:31:15.092Z,100986.59
2022-09-07T08:33:43.854Z,100986.75
2022-09-07T08:36:13.695Z,100968.91
2022-09-07T08:38:42.662Z,100967.03
2022-09-07T08:41:47.265Z,100985.19
2022-09-07T08:44:22.997Z,100984.19
2022-09-07T08:46:56.711Z,100988.84
2022-09-07T08:49:33.915Z,100988.84
2022-09-07T08:52:05.177Z,100994.34
2022-09-07T08:54:34.137Z,100991.53
2022-09-07T09:00:00.541Z,100990.38
2022-09-07T09:02:31.916Z,100993.53
2022-09-07T09:05:18.190Z,100988.97
2022-09-07T09:07:56.241Z,100996.22
2022-09-07T09:10:33.984Z,101005.69
2022-09-07T09:13:13.191Z,101007.16
2022-09-07T09:15:53.207Z,101016.63
2022-09-07T09:18:41.561Z,101026.94
2022-09-07T09:21:15.020Z,101031.19
2022-09-07T09:23:45.647Z,101044.19
2022-09-07T09:26:18.647Z,101030.63
2022-09-07T09:28:48.037Z,101020.34
2022-09-07T09:31:19.326Z,101006.72
2022-09-07T09:34:09.398Z,100996.53
2022-09-07T09:36:43.375Z,100984.25
2022-09-07T09:39:31.511Z,100979.41
2022-09-07T09:42:14.121Z,100977.31
2022-09-07T09:44:45.414Z,100993.06
2022-09-07T09:47:30.721Z,100991.53
2022-09-07T09:50:00.893Z,100987.47
2022-09-07T09:52:38.473Z,100977.72
2022-09-07T09:55:34.570Z,100987.63
2022-09-07T10:06:22.996Z,100995.66
2022-09-07T10:08:57.337Z,101001.22
2022-09-07T10:14:32.330Z,100998.75
2022-09-07T10:17:11.237Z,100993.03
2022-09-07T10:19:41.501Z,100996.69
2022-09-07T10:22:24.706Z,100990.38
2022-09-07T10:24:53.032Z,100997.19
2022-09-07T10:27:29.772Z,101000.34
2022-09-07T10:29:58.001Z,101004.19
2022-09-07T10:32:36.295Z,101008.72
2022-09-07T10:35:15.257Z,101000.97
2022-09-07T10:37:52.168Z,101003.44
2022-09-07T10:40:29.509Z,101006.34
2022-09-07T10:43:22.786Z,100997.91
2022-09-07T10:46:56.417Z,101001.72
2022-09-07T10:49:17.377Z,100994.88
2022-09-07T10:51:59.649Z,101001.06
2022-09-07T10:54:37.248Z,100987.28
2022-09-07T10:57:24.161Z,100998.06
2022-09-07T11:00:09.647Z,101001.56
2022-09-07T11:06:00.226Z,100985.53
2022-09-07T11:09:15.716Z,100985.34
2022-09-07T11:14:21.173Z,100988.97
2022-09-07T11:16:54.092Z,100981.19
2022-09-07T11:19:36.522Z,100965.97
2022-09-07T11:22:20.050Z,100963.50
2022-09-07T11:27:46.507Z,100964.91
2022-09-07T11:30:20.773Z,100962.41
2022-09-07T11:33:03.251Z,100965.59
2022-09-07T11:35:45.879Z,100948.44
2022-09-07T11:38:26.589Z,100951.00
2022-09-07T11:41:09.253Z,100954.91
2022-09-07T11:43:41.873Z,100933.28
2022-09-07T11:46:15.245Z,100939.72
2022-09-07T11:48:46.868Z,100941.50
2022-09-07T11:51:21.490Z,100935.22
2022-09-07T11:53:54.525Z,100929.19
2022-09-07T11:56:29.291Z,100928.97
2022-09-07T11:59:20.460Z,100935.06
2022-09-07T12:02:02.450Z,100925.97
2022-09-07T12:04:39.934Z,100919.66
2022-09-07T12:07:50.065Z,100911.97
2022-09-07T12:10:36.399Z,100908.25
2022-09-07T12:13:42.973Z,100903.38
2022-09-07T12:16:18.602Z,100898.25
2022-09-07T12:19:18.418Z,100906.03
2022-09-07T12:21:50.340Z,100907.22
2022-09-07T12:24:44.091Z,100903.63
2022-09-07T12:27:40.459Z,100903.28
2022-09-07T12:30:51.876Z,100897.69
2022-09-07T12:33:25.096Z,100885.25
2022-09-07T12:35:55.012Z,100887.00
2022-09-07T12:39:01.670Z,100885.25
2022-09-07T12:41:47.899Z,100883.75
2022-09-07T12:44:20.255Z,100886.78
2022-09-07T12:46:51.910Z,100882.50
2022-09-07T12:49:48.390Z,100888.53
2022-09-07T12:52:39.417Z,100886.19
2022-09-07T12:56:15.502Z,100892.91
2022-09-07T12:58:22.040Z,100892.97
2022-09-07T13:01:05.633Z,100887.00
2022-09-07T13:03:51.394Z,100889.03
2022-09-07T13:09:32.840Z,100877.50
2022-09-07T13:12:04.640Z,100877.59
2022-09-07T13:14:37.918Z,100875.16
2022-09-07T13:17:41.636Z,100865.34
2022-09-07T13:20:30.077Z,100871.22
2022-09-07T13:23:09.732Z,100871.56
2022-09-07T13:25:46.573Z,100875.31
2022-09-07T13:28:25.860Z,100871.41
2022-09-07T13:31:05.640Z,100866.59
2022-09-07T13:33:51.574Z,100867.72
2022-09-07T13:36:27.614Z,100863.13
2022-09-07T13:38:56.169Z,100855.44
2022-09-07T13:41:28.169Z,100863.50
2022-09-07T13:44:00.708Z,100852.84
2022-09-07T13:46:47.685Z,100844.28
2022-09-07T13:49:36.055Z,100847.56
2022-09-07T13:52:08.854Z,100844.56
2022-09-07T13:54:51.320Z,100851.81
2022-09-07T13:57:27.439Z,100848.75
2022-09-07T13:59:56.786Z,100838.56
2022-09-07T14:02:27.641Z,100847.97
2022-09-07T14:04:58.794Z,100847.53
2022-09-07T14:07:28.261Z,100852.78
2022-09-07T14:10:14.325Z,100842.59
2022-09-07T14:12:44.396Z,100837.06
2022-09-07T14:15:20.162Z,100850.13
2022-09-07T14:17:49.657Z,100850.22
2022-09-07T14:20:19.556Z,100851.56
2022-09-07T14:22:52.009Z,100842.75
2022-09-07T14:25:22.764Z,100841.78
2022-09-07T14:27:51.263Z,100838.13
2022-09-07T14:30:25.918Z,100834.97
2022-09-07T14:32:55.834Z,100835.44
2022-09-07T14:35:28.296Z,100805.44
2022-09-07T14:37:59.308Z,100830.88
2022-09-07T14:40:27.502Z,100828.41
2022-09-07T14:42:56.244Z,100832.41
2022-09-07T14:45:34.975Z,100827.75
2022-09-07T14:48:13.414Z,100830.94
2022-09-07T14:51:00.889Z,100837.19
2022-09-07T14:53:37.453Z,100836.31
2022-09-07T14:56:11.376Z,100837.56
2022-09-07T14:58:39.389Z,100835.91
2022-09-07T15:04:18.389Z,100839.16
2022-09-07T15:07:03.646Z,100843.50
2022-09-07T15:09:37.369Z,100829.06
2022-09-07T15:12:27.321Z,100831.91
2022-09-07T15:15:11.929Z,100830.41
2022-09-07T15:17:43.551Z,100825.06
2022-09-07T15:20:40.300Z,100822.97
2022-09-07T15:23:13.424Z,100828.19
2022-09-07T15:25:46.568Z,100821.53
2022-09-07T15:34:00.930Z,100821.13
2022-09-07T15:36:31.881Z,100823.72
2022-09-07T15:39:02.992Z,100819.38
2022-09-07T15:41:31.615Z,100822.09
2022-09-07T15:44:00.182Z,100815.91
2022-09-07T15:46:28.362Z,100820.78
2022-09-07T15:48:57.071Z,100806.16
2022-09-07T15:54:16.320Z,100825.78
2022-09-07T15:57:48.293Z,100826.94
2022-09-07T15:59:32.956Z,100824.69
2022-09-07T16:02:01.632Z,100818.91
2022-09-07T16:04:30.419Z,100818.47
2022-09-07T16:07:01.624Z,100814.88
2022-09-07T16:09:31.141Z,100819.13
2022-09-07T16:13:00.226Z,100816.41
2022-09-07T16:14:47.041Z,100812.22
2022-09-07T16:20:04.543Z,100819.47
2022-09-07T16:25:22.212Z,100805.91
2022-09-07T16:27:50.230Z,100800.41
2022-09-07T16:30:18.306Z,100797.22
2022-09-07T16:32:46.353Z,100789.03
2022-09-07T16:35:14.596Z,100784.53
2022-09-07T16:38:43.571Z,100790.50
2022-09-07T16:40:31.912Z,100792.38
2022-09-07T16:42:59.847Z,100791.25
2022-09-07T16:48:15.714Z,100801.41
2022-09-07T16:51:00.298Z,100793.34
2022-09-07T16:53:30.184Z,100787.19
2022-09-07T16:56:03.117Z,100789.38
2022-09-07T16:58:35.934Z,100785.31
2022-09-07T17:01:04.995Z,100786.59
2022-09-07T17:03:33.302Z,100790.31
2022-09-07T17:06:01.655Z,100790.34
2022-09-07T17:08:29.947Z,100790.53
2022-09-07T17:11:00.355Z,100786.22
2022-09-07T17:13:31.368Z,100792.56
2022-09-07T17:16:03.298Z,100789.88
2022-09-07T17:21:20.842Z,100793.66
2022-09-07T17:23:54.903Z,100769.53
2022-09-07T17:26:26.598Z,100790.03
2022-09-07T17:29:00.311Z,100799.06
2022-09-07T17:34:19.455Z,100798.94
2022-09-07T17:36:47.733Z,100800.16
2022-09-07T17:39:18.963Z,100807.19
2022-09-07T17:41:48.287Z,100814.41
2022-09-07T17:44:17.609Z,100812.47
2022-09-07T17:46:45.571Z,100810.22
2022-09-07T17:49:16.163Z,100807.94
2022-09-07T17:51:44.226Z,100812.34
2022-09-07T17:54:14.178Z,100814.94
2022-09-07T17:56:43.095Z,100817.78
2022-09-07T18:02:01.854Z,100812.41
2022-09-07T18:04:30.210Z,100799.00
2022-09-07T18:06:58.259Z,100812.56
2022-09-07T18:09:26.290Z,100817.28
2022-09-07T18:11:54.244Z,100820.63
2022-09-07T18:14:22.208Z,100820.22
2022-09-07T18:16:51.356Z,100828.13
2022-09-07T18:19:20.764Z,100823.44
2022-09-07T18:21:49.628Z,100825.72
2022-09-07T18:24:20.004Z,100829.44
2022-09-07T18:26:50.143Z,100830.09
2022-09-07T18:29:31.081Z,100835.63
2022-09-07T18:32:03.051Z,100828.16
2022-09-07T18:34:32.522Z,100834.25
2022-09-07T18:37:00.788Z,100827.31
2022-09-07T18:39:29.603Z,100834.44
2022-09-07T18:41:57.724Z,100814.09
2022-09-07T18:47:21.725Z,100837.75
2022-09-07T18:49:52.761Z,100845.34
2022-09-07T18:55:10.557Z,100856.25
2022-09-07T18:57:38.882Z,100856.53
2022-09-07T19:00:09.371Z,100861.72
2022-09-07T19:02:37.605Z,100862.00
2022-09-07T19:07:55.659Z,100868.81
2022-09-07T19:10:23.616Z,100870.38
2022-09-07T19:12:51.771Z,100864.22
2022-09-07T19:15:21.168Z,100861.16
2022-09-07T19:17:49.158Z,100873.03
2022-09-07T19:20:18.649Z,100871.41
2022-09-07T19:22:47.580Z,100873.44
2022-09-07T19:25:15.678Z,100871.91
2022-09-07T19:27:43.665Z,100874.69
2022-09-07T19:30:12.509Z,100865.94
2022-09-07T19:32:40.525Z,100865.84
2022-09-07T19:35:09.131Z,100864.84
2022-09-07T19:37:38.470Z,100864.00
2022-09-07T19:40:08.231Z,100856.66
2022-09-07T19:42:36.201Z,100864.19
2022-09-07T19:45:04.596Z,100866.78
2022-09-07T19:47:32.548Z,100863.22
2022-09-07T19:50:00.541Z,100862.25
2022-09-07T19:52:29.131Z,100867.66
2022-09-07T19:55:00.321Z,100878.56
2022-09-07T19:57:28.482Z,100880.31
2022-09-07T19:59:57.914Z,100874.91
2022-09-07T20:02:26.041Z,100876.56
2022-09-07T20:04:54.040Z,100868.53
2022-09-07T20:07:23.801Z,100863.44
2022-09-07T20:09:52.380Z,100864.50
2022-09-07T20:12:21.735Z,100861.00
2022-09-07T20:14:49.696Z,100861.00
2022-09-07T20:17:17.681Z,100849.34
2022-09-07T20:19:45.654Z,100848.16
2022-09-07T20:22:13.628Z,100852.78
2022-09-07T20:24:41.762Z,100851.72
2022-09-07T20:27:09.721Z,100853.47
2022-09-07T20:29:39.054Z,100852.25
2022-09-07T20:32:07.098Z,100845.88
2022-09-07T20:34:35.207Z,100843.50
2022-09-07T20:37:03.164Z,100833.63
2022-09-07T20:39:33.631Z,100832.16
2022-09-07T20:42:05.241Z,100809.56
2022-09-07T20:44:33.215Z,100821.28
2022-09-07T20:47:02.740Z,100830.72
2022-09-07T20:49:31.324Z,100840.56
2022-09-07T20:51:59.277Z,100854.66
2022-09-07T20:54:27.190Z,100853.50
2022-09-07T20:56:55.136Z,100860.34
2022-09-07T20:59:23.183Z,100858.50
2022-09-07T21:01:51.154Z,100859.56
2022-09-07T21:04:20.599Z,100865.25
2022-09-07T21:06:48.529Z,100866.59
2022-09-07T21:09:16.477Z,100863.53
2022-09-07T21:11:49.026Z,100864.00
2022-09-07T21:14:19.210Z,100859.00
2022-09-07T21:16:47.149Z,100857.44
2022-09-07T21:19:15.749Z,100863.91
2022-09-07T21:21:45.110Z,100863.25
2022-09-07T21:24:17.657Z,100861.50
2022-09-07T21:26:45.965Z,100854.72
2022-09-07T21:29:18.436Z,100859.63
2022-09-07T21:31:46.662Z,100858.38
2022-09-07T21:34:15.390Z,100854.41
2022-09-07T21:36:45.431Z,100854.50
2022-09-07T21:39:14.832Z,100866.28
2022-09-07T21:41:43.535Z,100855.13
2022-09-07T21:44:13.898Z,100855.00
2022-09-07T21:46:43.189Z,100852.66
2022-09-07T21:49:11.571Z,100852.75
2022-09-07T21:51:39.632Z,100846.03
2022-09-07T21:54:09.149Z,100840.06
2022-09-07T21:56:37.520Z,100838.41
2022-09-07T21:59:06.555Z,100832.44
2022-09-07T22:01:34.787Z,100833.75
2022-09-07T22:04:05.006Z,100812.53
2022-09-07T22:06:33.687Z,100823.56
2022-09-07T22:09:02.379Z,100831.66
2022-09-07T22:11:31.886Z,100810.16
2022-09-07T22:14:02.586Z,100821.91
2022-09-07T22:16:31.118Z,100818.72
2022-09-07T22:18:59.145Z,100819.66
2022-09-07T22:21:29.220Z,100814.28
2022-09-07T22:23:58.726Z,100811.84
2022-09-07T22:26:28.823Z,100812.13
2022-09-07T22:28:59.499Z,100814.81
2022-09-07T22:31:29.829Z,100816.72
2022-09-07T22:33:59.721Z,100814.97
2022-09-07T22:36:29.453Z,100815.41
2022-09-07T22:38:59.512Z,100812.38
2022-09-07T22:41:28.985Z,100807.44
2022-09-07T22:43:58.598Z,100805.88
2022-09-07T22:46:28.996Z,100801.53
2022-09-07T22:48:58.161Z,100805.97
2022-09-07T22:51:26.944Z,100805.19
2022-09-07T22:53:56.428Z,100797.19
2022-09-07T22:56:26.094Z,100797.44
2022-09-07T22:58:56.702Z,100797.84
2022-09-07T23:01:26.550Z,100795.31
2022-09-07T23:03:55.378Z,100781.78
2022-09-07T23:06:27.891Z,100780.03
2022-09-07T23:08:57.744Z,100780.03
2022-09-07T23:11:26.674Z,100781.94
2022-09-07T23:13:55.995Z,100773.06
2022-09-07T23:16:24.728Z,100779.44
2022-09-07T23:18:54.236Z,100780.63
2022-09-07T23:21:22.281Z,100779.75
2022-09-07T23:23:52.089Z,100779.16
2022-09-07T23:26:20.978Z,100773.13
2022-09-07T23:28:52.637Z,100774.44
2022-09-07T23:31:21.045Z,100776.34
2022-09-07T23:33:49.393Z,100780.00
2022-09-07T23:36:19.169Z,100773.56
2022-09-07T23:38:47.560Z,100772.00
2022-09-07T23:41:16.545Z,100768.28
2022-09-07T23:43:44.628Z,100765.50
2022-09-07T23:46:13.859Z,100769.84
2022-09-07T23:48:43.373Z,100776.28
2022-09-07T23:51:11.657Z,100774.63
2022-09-07T23:53:41.378Z,100779.06
2022-09-07T23:56:09.404Z,100777.47
2022-09-07T23:58:37.356Z,100780.25
